createdAt,value
2018-12-07T00:01:12.958Z,6.67
2018-12-07T00:03:41.039Z,6.53
2018-12-07T00:06:09.164Z,6.00
2018-12-07T00:08:37.374Z,6.30
2018-12-07T00:11:05.610Z,6.30
2018-12-07T00:13:33.792Z,6.40
2018-12-07T00:16:02.852Z,6.80
2018-12-07T00:18:30.951Z,6.07
2018-12-07T00:20:59.037Z,5.27
2018-12-07T00:23:27.119Z,5.50
2018-12-07T00:25:55.194Z,5.17
2018-12-07T00:28:23.259Z,5.47
2018-12-07T00:30:51.354Z,5.53
2018-12-07T00:33:19.411Z,5.03
2018-12-07T00:35:47.499Z,4.10
2018-12-07T00:38:15.562Z,4.33
2018-12-07T00:40:43.631Z,5.20
2018-12-07T00:43:11.690Z,4.53
2018-12-07T00:45:39.794Z,4.87
2018-12-07T00:48:07.860Z,4.00
2018-12-07T00:50:35.921Z,4.20
2018-12-07T00:53:04.035Z,4.30
2018-12-07T00:55:36.853Z,4.37
2018-12-07T00:58:05.130Z,3.87
2018-12-07T01:00:33.380Z,3.80
2018-12-07T01:03:01.568Z,3.87
2018-12-07T01:05:29.642Z,4.67
2018-12-07T01:07:57.743Z,4.37
2018-12-07T01:10:25.795Z,3.93
2018-12-07T01:12:53.896Z,4.37
2018-12-07T01:15:22.037Z,4.77
2018-12-07T01:17:50.127Z,4.50
2018-12-07T01:20:18.222Z,4.60
2018-12-07T01:22:46.359Z,4.57
2018-12-07T01:25:14.434Z,4.40
2018-12-07T01:27:42.487Z,4.40
2018-12-07T01:30:10.639Z,4.23
2018-12-07T01:32:38.696Z,4.53
2018-12-07T01:35:07.528Z,4.60
2018-12-07T01:37:35.589Z,5.97
2018-12-07T01:40:05.514Z,4.47
2018-12-07T01:42:33.602Z,4.80
2018-12-07T01:45:01.693Z,4.47
2018-12-07T01:47:29.758Z,5.37
2018-12-07T01:49:57.841Z,4.27
2018-12-07T01:52:25.940Z,4.70
2018-12-07T01:54:54.037Z,4.67
2018-12-07T01:57:22.099Z,4.53
2018-12-07T01:59:51.190Z,4.30
2018-12-07T02:02:19.277Z,4.43
2018-12-07T02:04:47.378Z,4.20
2018-12-07T02:07:30.017Z,5.00
2018-12-07T02:09:58.794Z,4.10
2018-12-07T02:12:27.312Z,4.30
2018-12-07T02:14:55.372Z,4.60
2018-12-07T02:17:23.480Z,4.67
2018-12-07T02:19:51.534Z,5.57
2018-12-07T02:22:19.623Z,4.73
2018-12-07T02:24:47.719Z,5.60
2018-12-07T02:27:15.783Z,5.00
2018-12-07T02:29:43.866Z,5.40
2018-12-07T02:32:11.931Z,5.83
2018-12-07T02:34:40.002Z,5.37
2018-12-07T02:37:08.080Z,5.97
2018-12-07T02:39:36.164Z,5.73
2018-12-07T02:42:04.235Z,6.07
2018-12-07T02:44:32.373Z,5.80
2018-12-07T02:47:00.424Z,6.10
2018-12-07T02:49:28.500Z,6.30
2018-12-07T02:51:56.583Z,5.40
2018-12-07T02:54:24.670Z,6.00
2018-12-07T02:56:52.750Z,5.67
2018-12-07T02:59:20.814Z,5.37
2018-12-07T03:01:48.892Z,5.03
2018-12-07T03:04:16.954Z,5.07
2018-12-07T03:06:45.035Z,4.50
2018-12-07T03:09:13.191Z,4.40
2018-12-07T03:11:41.249Z,5.60
2018-12-07T03:14:09.321Z,4.90
2018-12-07T03:16:40.555Z,5.60
2018-12-07T03:19:08.712Z,4.97
2018-12-07T03:21:38.131Z,4.13
2018-12-07T03:24:06.223Z,4.77
2018-12-07T03:26:34.295Z,5.27
2018-12-07T03:29:02.366Z,4.30
2018-12-07T03:31:30.451Z,4.67
2018-12-07T03:33:58.522Z,3.73
2018-12-07T03:36:26.591Z,4.33
2018-12-07T03:38:54.650Z,3.40
2018-12-07T03:41:22.738Z,3.03
2018-12-07T03:43:50.803Z,3.50
2018-12-07T03:46:18.967Z,3.50
2018-12-07T03:48:47.046Z,2.90
2018-12-07T03:51:15.143Z,3.30
2018-12-07T03:53:43.229Z,2.77
2018-12-07T03:56:11.314Z,3.10
2018-12-07T03:58:39.474Z,2.37
2018-12-07T04:01:07.559Z,2.07
2018-12-07T04:03:35.626Z,2.90
2018-12-07T04:06:03.718Z,2.80
2018-12-07T04:08:31.786Z,2.23
2018-12-07T04:10:59.863Z,2.67
2018-12-07T04:13:27.973Z,2.37
2018-12-07T04:15:56.056Z,2.17
2018-12-07T04:18:24.102Z,2.40
2018-12-07T04:20:52.199Z,1.70
2018-12-07T04:23:20.242Z,2.20
2018-12-07T04:25:48.317Z,1.97
2018-12-07T04:28:16.402Z,2.20
2018-12-07T04:30:44.472Z,2.27
2018-12-07T04:33:12.553Z,2.13
2018-12-07T04:35:40.630Z,2.07
2018-12-07T04:38:08.711Z,2.00
2018-12-07T04:40:36.783Z,2.03
2018-12-07T04:43:04.848Z,2.00
2018-12-07T04:45:32.927Z,2.03
2018-12-07T04:48:01.212Z,2.20
2018-12-07T04:50:29.278Z,2.10
2018-12-07T04:52:57.373Z,1.80
2018-12-07T04:55:25.478Z,2.10
2018-12-07T04:57:53.525Z,2.23
2018-12-07T05:00:21.595Z,1.70
2018-12-07T05:02:49.735Z,2.30
2018-12-07T05:05:17.839Z,1.80
2018-12-07T05:07:45.904Z,2.13
2018-12-07T05:10:13.974Z,2.00
2018-12-07T05:12:42.120Z,1.70
2018-12-07T05:15:10.177Z,1.73
2018-12-07T05:17:38.295Z,1.83
2018-12-07T05:20:06.431Z,1.80
2018-12-07T05:22:34.507Z,2.03
2018-12-07T05:25:02.660Z,2.03
2018-12-07T05:27:30.763Z,1.83
2018-12-07T05:29:58.851Z,2.10
2018-12-07T05:32:26.947Z,2.10
2018-12-07T05:34:55.050Z,2.30
2018-12-07T05:37:23.110Z,2.53
2018-12-07T05:39:51.315Z,2.60
2018-12-07T05:42:19.397Z,2.80
2018-12-07T05:44:48.228Z,3.07
2018-12-07T05:47:16.280Z,2.80
2018-12-07T05:49:44.353Z,3.30
2018-12-07T05:52:12.445Z,3.10
2018-12-07T05:54:40.515Z,3.33
2018-12-07T05:57:08.614Z,3.47
2018-12-07T05:59:36.669Z,3.57
2018-12-07T06:02:04.766Z,3.77
2018-12-07T06:04:32.827Z,4.10
2018-12-07T06:07:00.943Z,3.77
2018-12-07T06:09:29.168Z,5.03
2018-12-07T06:11:57.248Z,4.60
2018-12-07T06:14:25.320Z,4.27
2018-12-07T06:16:53.401Z,4.77
2018-12-07T06:19:21.508Z,4.10
2018-12-07T06:21:49.655Z,4.70
2018-12-07T06:24:17.753Z,4.43
2018-12-07T06:26:45.830Z,4.10
2018-12-07T06:29:14.103Z,4.50
2018-12-07T06:31:42.167Z,5.03
2018-12-07T06:34:10.267Z,4.57
2018-12-07T06:36:38.366Z,4.23
2018-12-07T06:39:07.093Z,5.00
2018-12-07T06:41:35.190Z,4.30
2018-12-07T06:44:03.362Z,5.60
2018-12-07T06:46:31.533Z,6.73
2018-12-07T06:49:07.877Z,6.10
2018-12-07T06:51:36.014Z,5.60
2018-12-07T06:54:04.191Z,5.07
2018-12-07T06:56:32.286Z,5.03
2018-12-07T06:59:00.376Z,5.10
2018-12-07T07:01:28.477Z,4.90
2018-12-07T07:03:56.635Z,5.43
2018-12-07T07:06:24.732Z,4.80
2018-12-07T07:08:52.795Z,4.90
2018-12-07T07:11:20.873Z,5.00
2018-12-07T07:13:48.963Z,5.40
2018-12-07T07:16:23.105Z,4.33
2018-12-07T07:18:47.074Z,4.10
2018-12-07T07:21:15.130Z,3.80
2018-12-07T07:23:43.235Z,4.23
2018-12-07T07:26:11.299Z,3.63
2018-12-07T07:28:39.370Z,3.47
2018-12-07T07:31:07.452Z,3.50
2018-12-07T07:33:35.527Z,4.80
2018-12-07T07:36:03.687Z,3.30
2018-12-07T07:38:31.791Z,4.20
2018-12-07T07:40:59.867Z,3.57
2018-12-07T07:43:27.962Z,4.30
2018-12-07T07:45:56.055Z,5.40
2018-12-07T07:48:24.130Z,5.30
2018-12-07T07:50:52.240Z,4.60
2018-12-07T07:53:20.342Z,3.57
2018-12-07T07:55:48.405Z,3.40
2018-12-07T07:58:16.561Z,3.63
2018-12-07T08:00:44.660Z,3.10
2018-12-07T08:03:12.743Z,5.37
2018-12-07T08:05:40.827Z,5.40
2018-12-07T08:08:08.920Z,7.50
2018-12-07T08:10:37.089Z,6.90
2018-12-07T08:13:05.144Z,6.10
2018-12-07T08:15:33.200Z,6.43
2018-12-07T08:18:01.282Z,5.03
2018-12-07T08:20:29.342Z,5.17
2018-12-07T08:22:57.461Z,7.63
2018-12-07T08:25:25.535Z,4.80
2018-12-07T08:27:53.600Z,3.60
2018-12-07T08:30:21.705Z,3.20
2018-12-07T08:32:49.759Z,2.50
2018-12-07T08:35:17.848Z,2.50
2018-12-07T08:37:45.910Z,2.40
2018-12-07T08:40:14.014Z,3.53
2018-12-07T08:42:42.217Z,2.87
2018-12-07T08:45:10.375Z,3.63
2018-12-07T08:47:38.491Z,17.10
2018-12-07T08:50:06.843Z,10.20
2018-12-07T08:52:34.946Z,7.23
2018-12-07T08:55:03.667Z,5.47
2018-12-07T08:57:31.739Z,5.90
2018-12-07T08:59:59.829Z,4.70
2018-12-07T09:02:27.959Z,3.90
2018-12-07T09:04:56.059Z,4.10
2018-12-07T09:07:24.163Z,3.97
2018-12-07T09:09:52.322Z,2.67
2018-12-07T09:12:20.398Z,2.83
2018-12-07T09:14:48.566Z,2.70
2018-12-07T09:17:16.667Z,4.50
2018-12-07T09:19:44.735Z,3.60
2018-12-07T09:22:12.819Z,3.10
2018-12-07T09:24:40.974Z,4.27
2018-12-07T09:27:09.039Z,5.67
2018-12-07T09:29:37.130Z,6.10
2018-12-07T09:32:05.304Z,6.50
2018-12-07T09:34:33.409Z,4.67
2018-12-07T09:37:01.476Z,3.37
2018-12-07T09:39:29.564Z,2.43
2018-12-07T09:41:57.632Z,2.60
2018-12-07T09:44:25.720Z,3.00
2018-12-07T09:46:53.815Z,3.10
2018-12-07T09:49:21.919Z,2.80
2018-12-07T09:51:49.988Z,2.43
2018-12-07T09:54:18.077Z,3.03
2018-12-07T09:56:46.156Z,3.00
2018-12-07T09:59:14.218Z,3.20
2018-12-07T10:01:42.303Z,2.43
2018-12-07T10:04:10.361Z,2.20
2018-12-07T10:06:38.550Z,2.30
2018-12-07T10:09:07.014Z,2.80
2018-12-07T10:11:35.108Z,2.63
2018-12-07T10:14:03.322Z,2.97
2018-12-07T10:16:31.431Z,2.57
2018-12-07T10:18:59.482Z,3.00
2018-12-07T10:21:27.576Z,2.70
2018-12-07T10:23:55.650Z,2.67
2018-12-07T10:26:24.403Z,2.40
2018-12-07T10:28:52.479Z,2.33
2018-12-07T10:31:20.557Z,2.93
2018-12-07T10:33:49.439Z,2.20
2018-12-07T10:36:17.477Z,2.60
2018-12-07T10:38:45.559Z,2.83
2018-12-07T10:41:13.649Z,2.90
2018-12-07T10:43:41.743Z,2.50
2018-12-07T10:46:09.860Z,2.40
2018-12-07T10:48:37.927Z,3.23
2018-12-07T10:51:08.157Z,2.37
2018-12-07T10:53:36.126Z,2.07
2018-12-07T10:56:04.274Z,2.63
2018-12-07T10:58:32.381Z,2.40
2018-12-07T11:01:06.311Z,2.67
2018-12-07T11:03:40.233Z,2.90
2018-12-07T11:06:10.335Z,2.40
2018-12-07T11:11:45.282Z,2.23
2018-12-07T11:14:15.384Z,2.50
2018-12-07T11:16:49.140Z,2.20
2018-12-07T11:19:22.855Z,2.77
2018-12-07T11:21:56.653Z,2.20
2018-12-07T11:24:30.572Z,2.50
2018-12-07T11:27:04.379Z,2.30
2018-12-07T11:29:38.279Z,2.57
2018-12-07T11:32:12.169Z,2.43
2018-12-07T11:34:41.867Z,2.07
2018-12-07T11:37:09.961Z,2.70
2018-12-07T11:39:38.070Z,2.37
2018-12-07T11:42:06.213Z,2.50
2018-12-07T11:44:34.275Z,2.40
2018-12-07T11:47:02.382Z,2.00
2018-12-07T11:49:32.364Z,1.90
2018-12-07T11:52:00.443Z,2.03
2018-12-07T11:54:28.527Z,4.07
2018-12-07T11:56:56.662Z,3.77
2018-12-07T11:59:24.738Z,1.90
2018-12-07T12:01:52.881Z,2.20
2018-12-07T12:04:20.955Z,1.60
2018-12-07T12:06:49.129Z,2.10
2018-12-07T12:09:17.193Z,2.80
2018-12-07T12:11:45.269Z,3.80
2018-12-07T12:14:13.337Z,3.50
2018-12-07T12:16:41.703Z,3.00
2018-12-07T12:19:09.824Z,3.00
2018-12-07T12:21:37.939Z,4.30
2018-12-07T12:24:06.008Z,3.37
2018-12-07T12:26:34.079Z,2.90
2018-12-07T12:29:02.188Z,2.20
2018-12-07T12:31:30.346Z,2.37
2018-12-07T12:33:58.435Z,1.63
2018-12-07T12:36:26.497Z,2.10
2018-12-07T12:38:54.586Z,2.03
2018-12-07T12:41:22.845Z,1.50
2018-12-07T12:43:51.045Z,1.83
2018-12-07T12:46:19.292Z,1.63
2018-12-07T12:48:47.429Z,1.00
2018-12-07T12:51:15.483Z,1.27
2018-12-07T12:53:43.648Z,2.30
2018-12-07T12:56:11.770Z,2.27
2018-12-07T12:58:39.834Z,1.70
2018-12-07T13:01:07.937Z,1.50
2018-12-07T13:03:36.011Z,1.40
2018-12-07T13:06:04.110Z,1.00
2018-12-07T13:08:32.187Z,1.00
2018-12-07T13:11:00.259Z,1.27
2018-12-07T13:13:29.201Z,1.27
2018-12-07T13:15:57.330Z,1.10
2018-12-07T13:18:25.470Z,1.23
2018-12-07T13:20:53.584Z,1.40
2018-12-07T13:23:21.673Z,1.07
2018-12-07T13:25:49.814Z,0.90
2018-12-07T13:28:17.848Z,1.20
2018-12-07T13:30:45.936Z,1.53
2018-12-07T13:33:14.018Z,1.47
2018-12-07T13:35:42.111Z,1.40
2018-12-07T13:38:10.203Z,1.40
2018-12-07T13:40:38.324Z,1.10
2018-12-07T13:43:06.523Z,0.90
2018-12-07T13:45:34.686Z,0.93
2018-12-07T13:48:03.097Z,1.40
2018-12-07T13:50:37.106Z,1.20
2018-12-07T13:53:05.512Z,1.10
2018-12-07T13:55:33.776Z,1.10
2018-12-07T13:58:01.989Z,1.00
2018-12-07T14:00:30.351Z,1.10
2018-12-07T14:02:58.553Z,1.10
2018-12-07T14:05:32.239Z,1.10
2018-12-07T14:07:56.823Z,0.90
2018-12-07T14:10:25.647Z,1.13
2018-12-07T14:12:53.975Z,1.00
2018-12-07T14:15:22.433Z,0.80
2018-12-07T14:17:50.636Z,1.30
2018-12-07T14:20:18.872Z,1.03
2018-12-07T14:22:47.173Z,1.30
2018-12-07T14:25:15.347Z,3.20
2018-12-07T14:27:43.470Z,2.30
2018-12-07T14:30:11.699Z,2.77
2018-12-07T14:32:39.948Z,1.77
2018-12-07T14:35:08.229Z,1.13
2018-12-07T14:37:36.342Z,1.03
2018-12-07T14:40:05.666Z,1.40
2018-12-07T14:42:33.818Z,1.30
2018-12-07T14:45:02.166Z,0.80
2018-12-07T14:47:30.502Z,1.10
2018-12-07T14:49:58.894Z,0.90
2018-12-07T14:52:27.155Z,1.03
2018-12-07T14:54:55.297Z,1.17
2018-12-07T14:57:23.587Z,1.00
2018-12-07T14:59:51.759Z,0.90
2018-12-07T15:02:20.053Z,1.20
2018-12-07T15:04:48.306Z,2.50
2018-12-07T15:07:16.503Z,8.17
2018-12-07T15:09:44.946Z,8.00
2018-12-07T15:12:13.153Z,4.10
2018-12-07T15:14:41.229Z,2.47
2018-12-07T15:17:09.437Z,2.53
2018-12-07T15:19:37.878Z,1.30
2018-12-07T15:22:06.067Z,1.93
2018-12-07T15:24:34.294Z,1.63
2018-12-07T15:27:02.518Z,1.40
2018-12-07T15:29:30.862Z,1.00
2018-12-07T15:31:59.084Z,1.20
2018-12-07T15:34:27.195Z,1.60
2018-12-07T15:36:55.603Z,1.70
2018-12-07T15:39:23.910Z,1.90
2018-12-07T15:41:52.182Z,1.20
2018-12-07T15:44:20.569Z,1.63
2018-12-07T15:46:48.718Z,1.10
2018-12-07T15:49:16.831Z,1.10
2018-12-07T15:51:45.177Z,1.20
2018-12-07T15:54:13.460Z,1.30
2018-12-07T15:56:41.756Z,1.10
2018-12-07T15:59:09.988Z,1.00
2018-12-07T16:01:38.246Z,0.97
2018-12-07T16:04:06.400Z,0.90
2018-12-07T16:06:34.628Z,2.97
2018-12-07T16:09:04.355Z,2.03
2018-12-07T16:11:32.597Z,2.17
2018-12-07T16:14:00.795Z,1.43
2018-12-07T16:16:28.898Z,1.43
2018-12-07T16:18:57.032Z,1.23
2018-12-07T16:21:25.251Z,1.60
2018-12-07T16:23:53.525Z,1.27
2018-12-07T16:26:21.685Z,1.03
2018-12-07T16:28:49.839Z,1.13
2018-12-07T16:31:18.157Z,0.90
2018-12-07T16:33:46.400Z,0.90
2018-12-07T16:36:14.615Z,0.97
2018-12-07T16:38:42.733Z,0.90
2018-12-07T16:41:10.974Z,1.00
2018-12-07T16:43:39.275Z,0.90
2018-12-07T16:46:07.530Z,1.10
2018-12-07T16:48:35.817Z,1.47
2018-12-07T16:51:04.132Z,1.10
2018-12-07T16:53:32.206Z,1.10
2018-12-07T16:56:00.344Z,1.03
2018-12-07T16:58:28.479Z,1.10
2018-12-07T17:00:56.872Z,1.57
2018-12-07T17:03:25.014Z,1.30
2018-12-07T17:05:53.200Z,0.80
2018-12-07T17:08:21.409Z,1.10
2018-12-07T17:10:49.922Z,1.10
2018-12-07T17:13:18.154Z,1.53
2018-12-07T17:15:46.436Z,0.90
2018-12-07T17:18:14.798Z,1.07
2018-12-07T17:20:43.002Z,1.10
2018-12-07T17:23:11.120Z,1.20
2018-12-07T17:25:39.273Z,2.33
2018-12-07T17:28:07.529Z,1.90
2018-12-07T17:30:35.686Z,1.33
2018-12-07T17:33:03.967Z,3.30
2018-12-07T17:35:32.322Z,2.50
2018-12-07T17:38:00.552Z,1.53
2018-12-07T17:40:28.765Z,1.10
2018-12-07T17:42:56.842Z,1.40
2018-12-07T17:45:25.125Z,1.10
2018-12-07T17:47:53.458Z,1.00
2018-12-07T17:50:22.390Z,1.00
2018-12-07T17:52:50.642Z,1.23
2018-12-07T17:55:18.780Z,1.50
2018-12-07T17:57:47.010Z,1.40
2018-12-07T18:00:15.531Z,1.10
2018-12-07T18:02:43.667Z,2.00
2018-12-07T18:05:11.996Z,1.73
2018-12-07T18:07:40.372Z,1.80
2018-12-07T18:10:08.753Z,1.63
2018-12-07T18:12:37.008Z,1.97
2018-12-07T18:15:06.403Z,1.50
2018-12-07T18:17:34.655Z,1.20
2018-12-07T18:20:03.943Z,1.40
2018-12-07T18:22:32.441Z,1.80
2018-12-07T18:25:01.003Z,1.43
2018-12-07T18:27:29.321Z,1.40
2018-12-07T18:29:57.599Z,1.53
2018-12-07T18:32:25.847Z,1.30
2018-12-07T18:34:54.061Z,1.23
2018-12-07T18:37:22.478Z,1.50
2018-12-07T18:39:50.773Z,1.20
2018-12-07T18:42:19.028Z,1.00
2018-12-07T18:44:47.414Z,1.10
2018-12-07T18:47:15.669Z,1.10
2018-12-07T18:49:44.025Z,1.23
2018-12-07T18:52:12.350Z,1.40
2018-12-07T18:54:40.582Z,1.57
2018-12-07T18:57:08.791Z,1.50
2018-12-07T18:59:37.005Z,0.90
2018-12-07T19:02:05.417Z,1.73
2018-12-07T19:04:33.845Z,1.10
2018-12-07T19:07:02.011Z,1.20
2018-12-07T19:09:30.415Z,1.10
2018-12-07T19:11:58.771Z,1.40
2018-12-07T19:14:27.164Z,1.20
2018-12-07T19:16:55.606Z,1.57
2018-12-07T19:19:24.318Z,1.30
2018-12-07T19:21:52.403Z,1.53
2018-12-07T19:24:21.140Z,1.63
2018-12-07T19:26:49.925Z,1.47
2018-12-07T19:29:18.570Z,1.60
2018-12-07T19:31:46.887Z,1.37
2018-12-07T19:34:15.186Z,1.57
2018-12-07T19:36:43.430Z,1.20
2018-12-07T19:39:11.828Z,1.43
2018-12-07T19:41:40.037Z,1.50
2018-12-07T19:44:08.599Z,2.40
2018-12-07T19:46:37.067Z,1.90
2018-12-07T19:49:05.392Z,1.33
2018-12-07T19:51:33.509Z,1.53
2018-12-07T19:54:01.718Z,1.60
2018-12-07T19:56:29.923Z,1.40
2018-12-07T19:58:58.261Z,1.50
2018-12-07T20:01:26.497Z,1.70
2018-12-07T20:03:55.383Z,1.63
2018-12-07T20:06:23.804Z,1.97
2018-12-07T20:08:52.503Z,1.93
2018-12-07T20:11:20.745Z,1.50
2018-12-07T20:13:49.567Z,2.53
2018-12-07T20:16:18.030Z,1.87
2018-12-07T20:18:46.304Z,1.57
2018-12-07T20:21:14.627Z,1.63
2018-12-07T20:23:42.709Z,1.90
2018-12-07T20:26:10.834Z,1.80
2018-12-07T20:28:39.021Z,2.03
2018-12-07T20:31:07.187Z,1.80
2018-12-07T20:33:35.811Z,2.20
2018-12-07T20:36:04.390Z,2.23
2018-12-07T20:38:32.851Z,2.27
2018-12-07T20:41:01.406Z,2.43
2018-12-07T20:43:29.738Z,2.40
2018-12-07T20:45:57.985Z,2.77
2018-12-07T20:48:26.270Z,2.73
2018-12-07T20:50:54.440Z,2.60
2018-12-07T20:53:22.646Z,2.90
2018-12-07T20:55:51.058Z,3.47
2018-12-07T20:58:19.357Z,3.50
2018-12-07T21:00:47.668Z,3.30
2018-12-07T21:03:16.274Z,3.23
2018-12-07T21:05:59.063Z,3.80
2018-12-07T21:08:39.459Z,3.40
2018-12-07T21:11:07.932Z,4.33
2018-12-07T21:13:53.925Z,4.33
2018-12-07T21:19:31.944Z,5.17
2018-12-07T21:22:00.345Z,4.50
2018-12-07T21:24:28.730Z,5.37
2018-12-07T21:26:57.129Z,5.60
2018-12-07T21:29:25.655Z,4.40
2018-12-07T21:31:57.046Z,4.40
2018-12-07T21:37:21.683Z,4.87
2018-12-07T21:39:49.812Z,4.07
2018-12-07T21:42:18.396Z,3.77
2018-12-07T21:44:47.295Z,4.30
2018-12-07T21:47:15.792Z,5.00
2018-12-07T21:49:44.157Z,4.33
2018-12-07T21:52:16.374Z,3.77
2018-12-07T21:54:44.604Z,4.03
2018-12-07T21:57:12.784Z,4.50
2018-12-07T21:59:40.874Z,3.90
2018-12-07T22:02:09.002Z,4.30
2018-12-07T22:04:37.434Z,4.07
2018-12-07T22:07:05.573Z,4.10
2018-12-07T22:09:33.896Z,4.20
2018-12-07T22:12:02.215Z,3.87
2018-12-07T22:14:30.513Z,4.10
2018-12-07T22:16:59.038Z,4.37
2018-12-07T22:19:27.262Z,4.00
2018-12-07T22:21:55.443Z,4.63
2018-12-07T22:24:23.693Z,4.37
2018-12-07T22:26:52.146Z,4.57
2018-12-07T22:29:20.389Z,4.53
2018-12-07T22:31:48.498Z,4.23
2018-12-07T22:34:16.563Z,4.30
2018-12-07T22:36:44.671Z,4.77
2018-12-07T22:39:12.820Z,4.57
2018-12-07T22:41:41.115Z,5.13
2018-12-07T22:44:09.579Z,5.53
2018-12-07T22:46:37.746Z,5.40
2018-12-07T22:49:05.930Z,4.90
2018-12-07T22:51:34.686Z,6.00
2018-12-07T22:54:02.841Z,6.00
2018-12-07T22:56:30.924Z,4.50
2018-12-07T22:58:59.032Z,5.30
2018-12-07T23:01:27.382Z,4.47
2018-12-07T23:03:55.489Z,5.17
2018-12-07T23:06:23.591Z,3.63
2018-12-07T23:08:51.689Z,3.90
2018-12-07T23:11:19.768Z,3.83
2018-12-07T23:13:47.855Z,4.00
2018-12-07T23:16:15.918Z,3.43
2018-12-07T23:18:44.009Z,3.07
2018-12-07T23:21:12.099Z,2.63
2018-12-07T23:23:40.186Z,3.77
2018-12-07T23:26:08.230Z,2.40
2018-12-07T23:28:36.316Z,2.40
2018-12-07T23:31:04.397Z,2.30
2018-12-07T23:33:32.434Z,2.10
2018-12-07T23:36:00.518Z,2.53
2018-12-07T23:38:28.624Z,2.80
2018-12-07T23:40:56.702Z,2.20
2018-12-07T23:43:25.147Z,2.47
2018-12-07T23:45:53.256Z,3.20
2018-12-07T23:48:21.329Z,2.97
2018-12-07T23:50:49.384Z,2.47
2018-12-07T23:53:17.455Z,2.70
2018-12-07T23:55:45.573Z,3.83
2018-12-07T23:58:13.719Z,3.70
